createdAt,value
2018-09-22T00:01:44.690Z,20.37
2018-09-22T00:04:18.234Z,20.60
2018-09-22T00:06:58.110Z,23.23
2018-09-22T00:09:31.702Z,22.50
2018-09-22T00:12:06.221Z,29.63
2018-09-22T00:14:39.787Z,22.40
2018-09-22T00:17:13.404Z,22.27
2018-09-22T00:19:48.024Z,15.50
2018-09-22T00:22:21.515Z,26.47
2018-09-22T00:24:55.128Z,22.70
2018-09-22T00:27:28.784Z,20.70
2018-09-22T00:30:02.529Z,26.60
2018-09-22T00:32:36.106Z,32.37
2018-09-22T00:35:09.761Z,20.57
2018-09-22T00:37:44.118Z,28.87
2018-09-22T00:40:24.341Z,17.67
2018-09-22T00:42:57.785Z,23.80
2018-09-22T00:45:37.732Z,18.80
2018-09-22T00:48:11.473Z,24.37
2018-09-22T00:50:45.195Z,26.00
2018-09-22T00:53:18.833Z,25.67
2018-09-22T00:55:52.486Z,27.63
2018-09-22T00:58:26.936Z,32.13
2018-09-22T01:01:00.680Z,24.53
2018-09-22T01:03:34.572Z,32.80
2018-09-22T01:06:14.482Z,20.67
2018-09-22T01:08:47.879Z,23.23
2018-09-22T01:11:27.812Z,21.07
2018-09-22T01:14:01.502Z,26.63
2018-09-22T01:16:36.054Z,26.43
2018-09-22T01:19:09.596Z,30.53
2018-09-22T01:21:43.108Z,26.60
2018-09-22T01:24:16.754Z,31.70
2018-09-22T01:26:50.288Z,29.20
2018-09-22T01:29:30.088Z,27.47
2018-09-22T01:32:03.718Z,25.17
2018-09-22T01:34:37.124Z,27.17
2018-09-22T01:37:10.841Z,25.90
2018-09-22T01:39:44.343Z,29.77
2018-09-22T01:42:17.999Z,28.03
2018-09-22T01:44:51.645Z,33.03
2018-09-22T01:47:31.710Z,26.13
2018-09-22T01:50:05.377Z,27.77
2018-09-22T01:52:38.929Z,32.03
2018-09-22T01:55:12.406Z,26.70
2018-09-22T01:57:52.106Z,20.80
2018-09-22T02:00:31.634Z,24.97
2018-09-22T02:03:11.367Z,21.87
2018-09-22T02:05:44.783Z,18.07
2018-09-22T02:08:18.096Z,28.60
2018-09-22T02:10:51.691Z,23.53
2018-09-22T02:13:25.933Z,28.77
2018-09-22T02:15:59.425Z,38.63
2018-09-22T02:18:32.804Z,32.90
2018-09-22T02:21:06.232Z,25.27
2018-09-22T02:23:45.851Z,19.57
2018-09-22T02:26:19.229Z,19.27
2018-09-22T02:28:52.489Z,35.50
2018-09-22T02:31:25.826Z,29.10
2018-09-22T02:33:59.098Z,28.87
2018-09-22T02:36:32.387Z,22.10
2018-09-22T02:39:07.787Z,28.60
2018-09-22T02:41:41.033Z,22.07
2018-09-22T02:44:14.477Z,19.67
2018-09-22T02:46:48.076Z,25.00
2018-09-22T02:49:21.609Z,24.07
2018-09-22T02:51:55.180Z,24.70
2018-09-22T02:54:34.897Z,25.50
2018-09-22T02:57:08.222Z,22.77
2018-09-22T02:59:47.937Z,26.53
2018-09-22T03:02:21.250Z,35.90
2018-09-22T03:04:54.764Z,32.67
2018-09-22T03:07:28.222Z,25.00
2018-09-22T03:10:01.795Z,26.90
2018-09-22T03:12:34.953Z,20.57
2018-09-22T03:15:09.244Z,31.83
2018-09-22T03:17:42.490Z,18.53
2018-09-22T03:20:15.947Z,29.17
2018-09-22T03:22:49.211Z,23.10
2018-09-22T03:25:23.492Z,20.83
2018-09-22T03:27:56.832Z,30.83
2018-09-22T03:30:36.526Z,37.07
2018-09-22T03:33:09.718Z,21.70
2018-09-22T03:35:49.285Z,22.83
2018-09-22T03:38:22.671Z,38.67
2018-09-22T03:40:56.912Z,27.80
2018-09-22T03:43:30.405Z,22.17
2018-09-22T03:46:10.159Z,33.70
2018-09-22T03:48:43.479Z,26.17
2018-09-22T03:51:16.943Z,28.57
2018-09-22T03:53:50.172Z,27.67
2018-09-22T03:56:23.488Z,41.37
2018-09-22T03:58:57.108Z,39.07
2018-09-22T04:01:30.634Z,30.17
2018-09-22T04:04:04.088Z,28.27
2018-09-22T04:06:37.640Z,39.97
2018-09-22T04:09:11.030Z,27.13
2018-09-22T04:11:50.904Z,29.37
2018-09-22T04:14:24.517Z,23.33
2018-09-22T04:16:57.867Z,24.93
2018-09-22T04:19:31.197Z,27.10
2018-09-22T04:22:11.053Z,27.87
2018-09-22T04:24:44.508Z,25.77
2018-09-22T04:27:17.995Z,34.60
2018-09-22T04:29:54.364Z,28.27
2018-09-22T04:32:27.677Z,26.40
2018-09-22T04:35:02.166Z,28.50
2018-09-22T04:37:35.566Z,26.83
2018-09-22T04:40:08.907Z,28.07
2018-09-22T04:42:48.669Z,27.80
2018-09-22T04:45:23.036Z,22.97
2018-09-22T04:47:56.555Z,29.53
2018-09-22T04:50:30.156Z,28.77
2018-09-22T04:53:03.705Z,25.47
2018-09-22T04:55:37.352Z,31.00
2018-09-22T04:58:10.784Z,27.83
2018-09-22T05:00:44.271Z,21.90
2018-09-22T05:03:17.763Z,25.20
2018-09-22T05:05:51.181Z,19.80
2018-09-22T05:08:25.668Z,29.43
2018-09-22T05:10:59.163Z,27.40
2018-09-22T05:13:32.739Z,34.03
2018-09-22T05:16:12.628Z,29.00
2018-09-22T05:18:46.088Z,32.60
2018-09-22T05:21:19.678Z,33.40
2018-09-22T05:23:53.080Z,26.93
2018-09-22T05:26:26.680Z,29.43
2018-09-22T05:29:01.095Z,26.83
2018-09-22T05:31:34.776Z,32.83
2018-09-22T05:34:15.304Z,30.30
2018-09-22T05:36:48.820Z,36.83
2018-09-22T05:39:28.701Z,25.13
2018-09-22T05:42:02.187Z,39.93
2018-09-22T05:44:35.576Z,33.57
2018-09-22T05:47:15.569Z,22.03
2018-09-22T05:49:56.205Z,22.83
2018-09-22T05:52:30.604Z,33.80
2018-09-22T05:55:04.152Z,30.33
2018-09-22T05:57:38.616Z,23.37
2018-09-22T06:00:17.266Z,27.40
2018-09-22T06:02:50.909Z,37.73
2018-09-22T06:05:24.505Z,33.93
2018-09-22T06:08:04.651Z,28.00
2018-09-22T06:10:38.270Z,35.80
2018-09-22T06:13:12.672Z,24.93
2018-09-22T06:15:51.339Z,28.87
2018-09-22T06:18:25.728Z,33.87
2018-09-22T06:20:59.482Z,35.63
2018-09-22T06:23:34.013Z,29.77
2018-09-22T06:26:07.484Z,31.57
2018-09-22T06:28:41.657Z,45.00
2018-09-22T06:31:21.511Z,30.07
2018-09-22T06:33:55.572Z,22.70
2018-09-22T06:36:31.064Z,35.40
2018-09-22T06:39:07.091Z,27.27
2018-09-22T06:41:40.498Z,30.43
2018-09-22T06:44:13.984Z,27.70
2018-09-22T06:46:53.749Z,28.90
2018-09-22T06:49:27.171Z,36.73
2018-09-22T06:52:00.477Z,26.77
2018-09-22T06:54:33.959Z,36.20
2018-09-22T06:57:07.334Z,32.33
2018-09-22T06:59:40.767Z,39.30
2018-09-22T07:02:14.607Z,34.60
2018-09-22T07:04:54.437Z,37.13
2018-09-22T07:07:27.903Z,32.37
2018-09-22T07:10:03.327Z,42.23
2018-09-22T07:12:36.738Z,42.83
2018-09-22T07:15:10.308Z,44.83
2018-09-22T07:17:50.257Z,37.67
2018-09-22T07:20:23.790Z,41.23
2018-09-22T07:23:03.014Z,39.23
2018-09-22T07:25:36.369Z,24.90
2018-09-22T07:28:09.784Z,41.43
2018-09-22T07:30:49.729Z,43.03
2018-09-22T07:33:23.506Z,36.60
2018-09-22T07:35:57.013Z,43.63
2018-09-22T07:38:30.500Z,26.23
2018-09-22T07:41:03.896Z,32.23
2018-09-22T07:43:37.489Z,42.83
2018-09-22T07:46:11.936Z,41.43
2018-09-22T07:48:45.319Z,31.03
2018-09-22T07:51:25.216Z,33.67
2018-09-22T07:53:58.760Z,34.20
2018-09-22T07:56:32.367Z,36.37
2018-09-22T07:59:12.075Z,30.10
2018-09-22T08:01:51.769Z,31.93
2018-09-22T08:04:25.401Z,43.33
2018-09-22T08:06:58.736Z,41.73
2018-09-22T08:09:32.196Z,36.67
2018-09-22T08:12:11.979Z,38.40
2018-09-22T08:14:46.287Z,37.53
2018-09-22T08:17:19.752Z,37.23
2018-09-22T08:19:54.300Z,54.23
2018-09-22T08:22:28.775Z,37.87
2018-09-22T08:25:08.675Z,55.93
2018-09-22T08:27:48.402Z,29.27
2018-09-22T08:30:21.872Z,41.43
2018-09-22T08:32:55.248Z,51.13
2018-09-22T08:35:28.903Z,25.27
2018-09-22T08:38:02.601Z,28.23
2018-09-22T08:40:36.266Z,29.73
2018-09-22T08:43:09.725Z,33.83
2018-09-22T08:45:49.551Z,18.50
2018-09-22T08:48:23.084Z,24.97
2018-09-22T08:50:56.696Z,27.23
2018-09-22T08:53:30.277Z,25.40
2018-09-22T08:56:03.979Z,14.87
2018-09-22T08:58:38.522Z,28.83
2018-09-22T09:01:11.952Z,27.80
2018-09-22T09:03:46.498Z,18.13
2018-09-22T09:06:26.473Z,27.10
2018-09-22T09:09:00.007Z,17.03
2018-09-22T09:11:39.747Z,23.50
2018-09-22T09:14:13.101Z,18.20
2018-09-22T09:16:53.151Z,17.30
2018-09-22T09:19:26.581Z,27.37
2018-09-22T09:21:59.902Z,25.53
2018-09-22T09:24:33.402Z,21.67
2018-09-22T09:27:06.821Z,24.23
2018-09-22T09:29:41.501Z,23.17
2018-09-22T09:32:17.798Z,23.07
2018-09-22T09:34:51.287Z,16.27
2018-09-22T09:37:24.695Z,13.70
2018-09-22T09:40:04.439Z,19.07
2018-09-22T09:42:44.982Z,17.87
2018-09-22T09:45:18.431Z,25.50
2018-09-22T09:47:58.912Z,27.70
2018-09-22T09:50:32.392Z,18.70
2018-09-22T09:53:12.451Z,19.07
2018-09-22T09:55:46.668Z,26.07
2018-09-22T09:58:20.152Z,13.07
2018-09-22T10:00:53.742Z,24.90
2018-09-22T10:03:27.271Z,22.10
2018-09-22T10:06:00.837Z,17.70
2018-09-22T10:08:35.192Z,22.63
2018-09-22T10:11:09.706Z,12.07
2018-09-22T10:13:49.439Z,19.77
2018-09-22T10:16:22.799Z,16.97
2018-09-22T10:18:57.298Z,20.13
2018-09-22T10:21:37.300Z,17.93
2018-09-22T10:24:11.740Z,18.10
2018-09-22T10:26:51.456Z,16.33
2018-09-22T10:29:24.813Z,21.37
2018-09-22T10:31:59.347Z,18.10
2018-09-22T10:34:32.705Z,16.57
2018-09-22T10:37:06.237Z,14.47
2018-09-22T10:39:46.558Z,16.03
2018-09-22T10:42:20.190Z,9.80
2018-09-22T10:45:00.558Z,13.20
2018-09-22T10:47:34.080Z,114.23
2018-09-22T10:50:08.523Z,21.63
2018-09-22T10:52:42.162Z,30.77
2018-09-22T10:55:15.601Z,52.73
2018-09-22T10:57:48.999Z,24.93
2018-09-22T11:00:28.984Z,28.83
2018-09-22T11:03:02.545Z,12.23
2018-09-22T11:05:36.147Z,15.00
2018-09-22T11:08:09.811Z,14.63
2018-09-22T11:10:43.392Z,9.93
2018-09-22T11:13:16.882Z,10.07
2018-09-22T11:15:57.056Z,15.13
2018-09-22T11:18:30.753Z,9.97
2018-09-22T11:21:05.180Z,12.50
2018-09-22T11:23:38.548Z,9.17
2018-09-22T11:26:12.070Z,13.27
2018-09-22T11:28:45.503Z,15.47
2018-09-22T11:31:19.001Z,21.77
2018-09-22T11:33:58.875Z,13.67
2018-09-22T11:36:32.516Z,14.17
2018-09-22T11:39:07.749Z,27.97
2018-09-22T11:41:47.813Z,25.67
2018-09-22T11:44:27.574Z,23.57
2018-09-22T11:47:01.332Z,18.37
2018-09-22T11:49:40.059Z,52.53
2018-09-22T11:52:13.556Z,64.13
2018-09-22T11:54:47.977Z,31.67
2018-09-22T11:57:21.544Z,74.30
2018-09-22T11:59:55.019Z,62.90
2018-09-22T12:02:35.014Z,26.93
2018-09-22T12:05:08.553Z,42.20
2018-09-22T12:07:42.050Z,33.27
2018-09-22T12:10:21.898Z,44.63
2018-09-22T12:12:55.345Z,43.97
2018-09-22T12:15:28.721Z,43.80
2018-09-22T12:18:03.340Z,51.17
2018-09-22T12:20:36.895Z,33.77
2018-09-22T12:23:16.775Z,10.60
2018-09-22T12:25:50.491Z,19.70
2018-09-22T12:28:24.199Z,15.63
2018-09-22T12:30:57.823Z,12.23
2018-09-22T12:33:37.685Z,17.60
2018-09-22T12:36:12.231Z,18.40
2018-09-22T12:38:48.147Z,22.77
2018-09-22T12:41:21.843Z,20.80
2018-09-22T12:43:55.259Z,21.43
2018-09-22T12:46:29.829Z,19.77
2018-09-22T12:49:05.361Z,26.57
2018-09-22T12:51:39.123Z,14.23
2018-09-22T12:54:13.569Z,25.67
2018-09-22T12:56:47.228Z,40.10
2018-09-22T12:59:21.201Z,16.67
2018-09-22T13:01:54.661Z,20.97
2018-09-22T13:04:28.099Z,27.23
2018-09-22T13:07:02.338Z,24.73
2018-09-22T13:09:35.846Z,21.30
2018-09-22T13:12:15.785Z,27.90
2018-09-22T13:14:49.292Z,29.13
2018-09-22T13:17:22.986Z,24.53
2018-09-22T13:19:56.469Z,25.53
2018-09-22T13:22:30.037Z,19.73
2018-09-22T13:25:09.715Z,15.60
2018-09-22T13:27:43.180Z,19.70
2018-09-22T13:30:16.643Z,31.50
2018-09-22T13:32:50.441Z,37.67
2018-09-22T13:35:23.895Z,32.93
2018-09-22T13:38:03.651Z,46.80
2018-09-22T13:40:38.127Z,57.40
2018-09-22T13:43:12.584Z,38.87
2018-09-22T13:45:52.414Z,34.00
2018-09-22T13:48:25.895Z,30.50
2018-09-22T13:51:06.191Z,43.33
2018-09-22T13:53:39.645Z,49.30
2018-09-22T13:56:13.274Z,52.63
2018-09-22T13:58:46.911Z,49.60
2018-09-22T14:01:20.364Z,73.07
2018-09-22T14:03:54.780Z,45.70
2018-09-22T14:06:34.696Z,67.00
2018-09-22T14:09:09.487Z,68.13
2018-09-22T14:11:42.904Z,53.53
2018-09-22T14:14:16.451Z,86.40
2018-09-22T14:16:50.135Z,81.43
2018-09-22T14:19:23.578Z,101.77
2018-09-22T14:22:03.489Z,150.17
2018-09-22T14:24:36.904Z,102.23
2018-09-22T14:27:10.534Z,93.37
2018-09-22T14:29:43.973Z,119.60
2018-09-22T14:32:17.424Z,120.37
2018-09-22T14:34:57.396Z,88.93
2018-09-22T14:37:37.295Z,69.57
2018-09-22T14:40:10.856Z,87.27
2018-09-22T14:42:44.438Z,66.47
2018-09-22T14:45:20.043Z,74.83
2018-09-22T14:47:53.474Z,92.40
2018-09-22T14:50:26.808Z,58.63
2018-09-22T14:53:00.240Z,94.37
2018-09-22T14:55:33.850Z,101.43
2018-09-22T14:58:07.488Z,80.60
2018-09-22T15:00:47.279Z,44.30
2018-09-22T15:03:27.240Z,63.43
2018-09-22T15:06:00.688Z,136.87
2018-09-22T15:08:35.075Z,62.37
2018-09-22T15:11:08.629Z,70.80
2018-09-22T15:13:42.228Z,59.43
2018-09-22T15:16:15.881Z,58.63
2018-09-22T15:18:51.595Z,29.90
2018-09-22T15:21:25.993Z,77.10
2018-09-22T15:24:00.385Z,38.90
2018-09-22T15:26:34.041Z,53.87
2018-09-22T15:29:07.629Z,76.90
2018-09-22T15:31:44.247Z,57.47
2018-09-22T15:34:17.724Z,52.00
2018-09-22T15:36:57.323Z,41.87
2018-09-22T15:39:31.961Z,42.20
2018-09-22T15:42:11.789Z,73.73
2018-09-22T15:44:45.184Z,66.60
2018-09-22T15:47:18.629Z,47.97
2018-09-22T15:49:52.497Z,45.73
2018-09-22T15:52:32.497Z,37.87
2018-09-22T15:55:06.066Z,38.90
2018-09-22T15:57:39.728Z,33.27
2018-09-22T16:00:13.166Z,39.47
2018-09-22T16:02:46.716Z,46.00
2018-09-22T16:05:20.331Z,37.73
2018-09-22T16:08:00.414Z,64.80
2018-09-22T16:10:34.035Z,65.93
2018-09-22T16:13:14.009Z,27.03
2018-09-22T16:15:54.040Z,68.73
2018-09-22T16:18:27.731Z,40.37
2018-09-22T16:21:08.349Z,41.50
2018-09-22T16:23:42.856Z,45.10
2018-09-22T16:26:16.563Z,54.97
2018-09-22T16:28:56.703Z,40.07
2018-09-22T16:31:36.742Z,52.23
2018-09-22T16:34:11.085Z,49.60
2018-09-22T16:36:44.543Z,48.23
2018-09-22T16:39:24.468Z,43.20
2018-09-22T16:41:59.005Z,45.03
2018-09-22T16:44:38.984Z,52.50
2018-09-22T16:47:13.440Z,35.07
2018-09-22T16:49:47.057Z,36.67
2018-09-22T16:52:20.637Z,37.93
2018-09-22T16:54:54.302Z,36.97
2018-09-22T16:57:34.233Z,33.97
2018-09-22T17:00:14.237Z,37.67
2018-09-22T17:02:48.648Z,31.30
2018-09-22T17:05:22.131Z,26.80
2018-09-22T17:08:02.240Z,26.57
2018-09-22T17:10:35.862Z,35.30
2018-09-22T17:13:09.204Z,34.80
2018-09-22T17:15:42.871Z,47.93
2018-09-22T17:18:16.341Z,37.77
2018-09-22T17:20:49.770Z,44.53
2018-09-22T17:23:23.300Z,46.33
2018-09-22T17:25:56.893Z,40.43
2018-09-22T17:28:36.851Z,38.13
2018-09-22T17:31:10.489Z,34.93
2018-09-22T17:33:44.139Z,52.53
2018-09-22T17:36:17.696Z,48.90
2018-09-22T17:38:52.036Z,40.40
2018-09-22T17:41:32.016Z,35.53
2018-09-22T17:44:05.577Z,48.33
2018-09-22T17:46:39.098Z,38.07
2018-09-22T17:49:12.601Z,42.43
2018-09-22T17:51:52.645Z,42.90
2018-09-22T17:54:25.996Z,43.37
2018-09-22T17:56:59.566Z,44.43
2018-09-22T17:59:39.431Z,51.43
2018-09-22T18:04:53.224Z,43.10
2018-09-22T18:07:33.146Z,38.63
2018-09-22T18:10:06.715Z,51.33
2018-09-22T18:12:40.246Z,49.07
2018-09-22T18:15:19.985Z,52.07
2018-09-22T18:17:53.470Z,51.13
2018-09-22T18:20:27.655Z,55.87
2018-09-22T18:23:01.166Z,62.80
2018-09-22T18:25:34.616Z,59.37
2018-09-22T18:28:14.790Z,43.03
2018-09-22T18:30:48.339Z,68.83
2018-09-22T18:33:28.190Z,40.83
2018-09-22T18:36:07.902Z,70.67
2018-09-22T18:38:41.540Z,55.20
2018-09-22T18:41:21.231Z,61.00
2018-09-22T18:43:55.575Z,51.33
2018-09-22T18:46:35.451Z,65.67
2018-09-22T18:49:15.134Z,54.90
2018-09-22T18:51:48.463Z,55.37
2018-09-22T18:54:27.914Z,61.77
2018-09-22T18:57:01.273Z,52.03
2018-09-22T18:59:40.917Z,73.10
2018-09-22T19:02:20.723Z,74.47
2018-09-22T19:04:53.980Z,56.30
2018-09-22T19:07:27.260Z,67.83
2018-09-22T19:10:00.664Z,58.47
2018-09-22T19:12:34.132Z,48.20
2018-09-22T19:15:14.555Z,62.10
2018-09-22T19:18:04.487Z,55.03
2018-09-22T19:21:11.601Z,68.10
2018-09-22T19:23:49.388Z,51.93
2018-09-22T19:26:26.050Z,70.50
2018-09-22T19:29:14.481Z,55.53
2018-09-22T19:31:53.388Z,55.30
2018-09-22T19:34:31.177Z,57.60
2018-09-22T19:37:21.106Z,68.90
2018-09-22T19:40:23.782Z,53.57
2018-09-22T19:43:29.223Z,73.07
2018-09-22T19:46:10.350Z,63.73
2018-09-22T19:49:24.976Z,72.73
2018-09-22T19:52:02.793Z,62.33
2018-09-22T19:54:42.623Z,68.87
2018-09-22T19:57:22.662Z,62.40
2018-09-22T19:59:56.097Z,84.00
2018-09-22T20:02:36.197Z,73.60
2018-09-22T20:05:09.665Z,77.87
2018-09-22T20:07:43.267Z,69.63
2018-09-22T20:10:16.823Z,91.87
2018-09-22T20:12:50.237Z,87.00
2018-09-22T20:15:23.759Z,105.00
2018-09-22T20:17:57.264Z,85.23
2018-09-22T20:20:30.771Z,93.13
2018-09-22T20:23:04.713Z,98.17
2018-09-22T20:25:38.326Z,103.33
2018-09-22T20:28:11.805Z,123.67
2018-09-22T20:30:51.605Z,140.50
2018-09-22T20:33:31.735Z,112.37
2018-09-22T20:36:05.240Z,128.30
2018-09-22T20:38:38.553Z,115.67
2018-09-22T20:41:11.952Z,122.70
2018-09-22T20:43:51.635Z,165.73
2018-09-22T20:46:31.741Z,143.70
2018-09-22T20:49:11.496Z,137.17
2018-09-22T20:51:51.253Z,139.60
2018-09-22T20:54:24.679Z,152.43
2018-09-22T20:56:58.148Z,160.67
2018-09-22T20:59:31.598Z,151.80
2018-09-22T21:02:11.481Z,163.40
2018-09-22T21:04:45.148Z,157.57
2018-09-22T21:07:18.475Z,168.20
2018-09-22T21:09:51.842Z,180.00
2018-09-22T21:12:25.354Z,176.67
2018-09-22T21:14:58.918Z,206.23
2018-09-22T21:17:32.575Z,196.37
2018-09-22T21:20:12.462Z,191.13
2018-09-22T21:22:52.320Z,216.33
2018-09-22T21:25:25.891Z,187.47
2018-09-22T21:28:01.363Z,246.47
2018-09-22T21:30:34.950Z,257.47
2018-09-22T21:33:08.473Z,224.43
2018-09-22T21:35:48.259Z,217.70
2018-09-22T21:38:28.066Z,252.10
2018-09-22T21:41:01.408Z,201.87
2018-09-22T21:43:35.032Z,252.47
2018-09-22T21:46:08.510Z,239.20
2018-09-22T21:48:42.006Z,213.13
2018-09-22T21:51:15.585Z,218.47
2018-09-22T21:53:49.007Z,209.23
2018-09-22T21:56:28.849Z,169.97
2018-09-22T21:59:08.750Z,202.87
2018-09-22T22:01:43.268Z,208.63
2018-09-22T22:04:16.710Z,233.53
2018-09-22T22:06:54.328Z,215.30
2018-09-22T22:09:27.865Z,192.47
2018-09-22T22:12:07.503Z,198.50
2018-09-22T22:14:40.829Z,218.67
2018-09-22T22:17:15.248Z,235.23
2018-09-22T22:19:48.719Z,219.07
2018-09-22T22:22:28.753Z,223.40
2018-09-22T22:25:02.252Z,243.13
2018-09-22T22:27:42.328Z,206.70
2018-09-22T22:30:15.951Z,210.47
2018-09-22T22:32:49.595Z,187.57
2018-09-22T22:35:23.736Z,215.73
2018-09-22T22:37:57.225Z,222.73
2018-09-22T22:40:30.625Z,235.73
2018-09-22T22:43:04.181Z,220.30
2018-09-22T22:45:37.710Z,247.67
2018-09-22T22:48:11.223Z,207.67
2018-09-22T22:50:44.817Z,222.63
2018-09-22T22:53:18.214Z,254.67
2018-09-22T22:55:51.705Z,292.10
2018-09-22T22:58:25.065Z,305.77
2018-09-22T23:00:58.470Z,271.77
2018-09-22T23:03:32.024Z,290.67
2018-09-22T23:06:06.490Z,255.03
2018-09-22T23:08:46.204Z,324.20
2018-09-22T23:11:19.695Z,268.57
2018-09-22T23:13:53.148Z,295.30
2018-09-22T23:16:26.546Z,312.60
2018-09-22T23:19:00.040Z,282.10
2018-09-22T23:21:33.649Z,288.50
2018-09-22T23:24:07.325Z,296.43
2018-09-22T23:26:40.812Z,281.33
2018-09-22T23:29:14.288Z,315.90
2018-09-22T23:31:47.866Z,356.23
2018-09-22T23:34:21.253Z,346.33
2018-09-22T23:36:54.591Z,345.73
2018-09-22T23:39:35.253Z,315.17
2018-09-22T23:42:14.946Z,340.57
2018-09-22T23:44:49.372Z,394.97
2018-09-22T23:47:22.808Z,326.43
2018-09-22T23:49:57.195Z,332.27
2018-09-22T23:52:30.756Z,294.33
2018-09-22T23:55:04.255Z,339.10
2018-09-22T23:57:37.917Z,328.27
